createdAt,value
2019-02-21T00:01:55.443Z,19.03
2019-02-21T00:04:23.870Z,18.73
2019-02-21T00:06:52.324Z,20.60
2019-02-21T00:09:20.857Z,19.53
2019-02-21T00:11:49.276Z,17.57
2019-02-21T00:14:17.787Z,20.27
2019-02-21T00:16:46.183Z,18.67
2019-02-21T00:19:14.541Z,19.33
2019-02-21T00:21:43.068Z,18.40
2019-02-21T00:24:11.569Z,18.40
2019-02-21T00:26:39.996Z,19.27
2019-02-21T00:29:08.476Z,18.37
2019-02-21T00:31:36.942Z,18.63
2019-02-21T00:34:05.384Z,20.37
2019-02-21T00:36:33.749Z,20.03
2019-02-21T00:39:02.284Z,19.73
2019-02-21T00:41:30.743Z,19.80
2019-02-21T00:43:59.168Z,19.60
2019-02-21T00:46:27.668Z,19.57
2019-02-21T00:48:57.942Z,19.87
2019-02-21T00:51:26.381Z,20.30
2019-02-21T00:53:54.773Z,19.43
2019-02-21T00:56:23.176Z,20.47
2019-02-21T00:58:51.628Z,19.70
2019-02-21T01:01:20.958Z,21.57
2019-02-21T01:03:49.527Z,20.37
2019-02-21T01:06:17.895Z,20.73
2019-02-21T01:08:47.953Z,20.87
2019-02-21T01:11:16.432Z,22.17
2019-02-21T01:13:44.942Z,22.03
2019-02-21T01:16:13.417Z,20.53
2019-02-21T01:18:41.777Z,21.03
2019-02-21T01:21:10.212Z,21.97
2019-02-21T01:23:38.599Z,21.27
2019-02-21T01:26:07.080Z,20.23
2019-02-21T01:28:35.509Z,22.90
2019-02-21T01:31:03.988Z,22.10
2019-02-21T01:33:32.415Z,21.37
2019-02-21T01:36:00.967Z,20.97
2019-02-21T01:38:29.535Z,22.47
2019-02-21T01:40:57.988Z,23.67
2019-02-21T01:43:26.423Z,23.97
2019-02-21T01:45:54.884Z,23.87
2019-02-21T01:48:23.326Z,24.03
2019-02-21T01:50:51.688Z,22.20
2019-02-21T01:53:20.085Z,22.93
2019-02-21T01:55:48.439Z,22.77
2019-02-21T01:58:16.932Z,22.90
2019-02-21T02:00:45.520Z,23.30
2019-02-21T02:03:13.941Z,23.47
2019-02-21T02:05:42.307Z,25.50
2019-02-21T02:08:10.761Z,23.87
2019-02-21T02:10:39.137Z,23.20
2019-02-21T02:13:07.579Z,23.47
2019-02-21T02:15:36.058Z,24.17
2019-02-21T02:18:04.515Z,24.93
2019-02-21T02:20:32.948Z,24.20
2019-02-21T02:23:01.369Z,24.23
2019-02-21T02:25:29.840Z,24.30
2019-02-21T02:27:58.315Z,21.87
2019-02-21T02:30:26.819Z,24.97
2019-02-21T02:32:55.214Z,22.77
2019-02-21T02:35:23.652Z,23.07
2019-02-21T02:37:52.118Z,23.30
2019-02-21T02:40:20.493Z,23.10
2019-02-21T02:42:48.933Z,23.67
2019-02-21T02:45:17.393Z,25.00
2019-02-21T02:47:45.752Z,24.40
2019-02-21T02:50:14.199Z,24.90
2019-02-21T02:52:42.668Z,23.93
2019-02-21T02:55:11.112Z,24.43
2019-02-21T02:57:39.472Z,24.17
2019-02-21T03:00:09.028Z,25.27
2019-02-21T03:02:37.452Z,24.33
2019-02-21T03:05:06.057Z,26.37
2019-02-21T03:07:34.517Z,25.63
2019-02-21T03:10:03.233Z,24.57
2019-02-21T03:12:31.584Z,24.67
2019-02-21T03:15:00.012Z,25.47
2019-02-21T03:17:28.369Z,26.20
2019-02-21T03:19:56.720Z,26.13
2019-02-21T03:22:25.115Z,25.90
2019-02-21T03:24:53.477Z,26.13
2019-02-21T03:27:21.832Z,25.13
2019-02-21T03:29:50.240Z,24.90
2019-02-21T03:32:18.668Z,25.77
2019-02-21T03:34:47.035Z,25.07
2019-02-21T03:37:15.685Z,25.47
2019-02-21T03:39:44.085Z,26.40
2019-02-21T03:42:12.440Z,25.67
2019-02-21T03:44:40.915Z,25.77
2019-02-21T03:47:09.288Z,26.17
2019-02-21T03:49:37.663Z,26.57
2019-02-21T03:52:06.152Z,28.40
2019-02-21T03:54:34.582Z,26.73
2019-02-21T03:57:02.999Z,26.87
2019-02-21T03:59:31.465Z,27.83
2019-02-21T04:02:05.277Z,28.13
2019-02-21T04:04:30.086Z,28.03
2019-02-21T04:06:58.548Z,29.43
2019-02-21T04:09:27.004Z,26.80
2019-02-21T04:11:55.435Z,27.47
2019-02-21T04:14:23.973Z,26.93
2019-02-21T04:16:52.340Z,26.23
2019-02-21T04:19:20.791Z,27.90
2019-02-21T04:21:49.248Z,29.07
2019-02-21T04:24:17.703Z,29.27
2019-02-21T04:26:46.167Z,27.83
2019-02-21T04:29:14.557Z,27.27
2019-02-21T04:31:42.993Z,28.37
2019-02-21T04:34:11.439Z,30.17
2019-02-21T04:36:39.827Z,27.77
2019-02-21T04:39:08.349Z,28.30
2019-02-21T04:41:36.709Z,27.40
2019-02-21T04:44:05.236Z,29.43
2019-02-21T04:46:33.592Z,30.03
2019-02-21T04:49:01.956Z,29.93
2019-02-21T04:51:30.473Z,29.30
2019-02-21T04:54:10.908Z,28.77
2019-02-21T04:56:39.379Z,29.43
2019-02-21T04:59:07.747Z,29.97
2019-02-21T05:01:36.117Z,29.03
2019-02-21T05:04:05.041Z,28.53
2019-02-21T05:06:33.512Z,28.23
2019-02-21T05:09:01.967Z,29.63
2019-02-21T05:11:30.528Z,29.30
2019-02-21T05:13:58.908Z,30.43
2019-02-21T05:19:37.508Z,27.60
2019-02-21T05:22:05.880Z,27.73
2019-02-21T05:24:34.403Z,27.67
2019-02-21T05:27:08.378Z,27.33
2019-02-21T05:29:36.750Z,28.03
2019-02-21T05:32:21.823Z,28.87
2019-02-21T05:34:55.819Z,28.77
2019-02-21T05:37:32.014Z,30.13
2019-02-21T05:40:28.335Z,29.10
2019-02-21T05:43:14.001Z,26.43
2019-02-21T05:46:07.333Z,27.87
2019-02-21T05:48:59.895Z,27.43
2019-02-21T05:51:36.158Z,28.23
2019-02-21T05:54:33.043Z,29.87
2019-02-21T05:57:10.316Z,27.73
2019-02-21T06:00:00.852Z,27.53
2019-02-21T06:02:53.421Z,26.97
2019-02-21T06:05:37.034Z,29.53
2019-02-21T06:08:23.404Z,40.78
2019-02-21T06:11:18.106Z,30.20
2019-02-21T06:13:54.796Z,27.57
2019-02-21T06:16:54.635Z,28.17
2019-02-21T06:19:50.454Z,27.80
2019-02-21T06:22:40.845Z,28.00
2019-02-21T06:25:23.752Z,30.30
2019-02-21T06:28:19.457Z,27.43
2019-02-21T06:30:54.508Z,28.60
2019-02-21T06:33:22.944Z,27.07
2019-02-21T06:35:53.760Z,28.43
2019-02-21T06:38:25.508Z,28.67
2019-02-21T06:40:53.964Z,32.37
2019-02-21T06:43:22.428Z,30.43
2019-02-21T06:45:50.904Z,30.33
2019-02-21T06:48:19.349Z,28.80
2019-02-21T06:50:47.901Z,29.77
2019-02-21T06:53:16.396Z,29.37
2019-02-21T06:55:44.868Z,32.00
2019-02-21T06:58:13.380Z,31.77
2019-02-21T07:00:41.832Z,31.47
2019-02-21T07:06:31.449Z,32.53
2019-02-21T07:08:51.288Z,29.93
2019-02-21T07:11:19.688Z,34.43
2019-02-21T07:13:48.164Z,34.27
2019-02-21T07:16:16.576Z,32.23
2019-02-21T07:18:45.065Z,33.90
2019-02-21T07:21:13.532Z,32.63
2019-02-21T07:23:47.444Z,32.27
2019-02-21T07:26:18.072Z,33.17
2019-02-21T07:28:46.443Z,31.30
2019-02-21T07:31:14.905Z,35.37
2019-02-21T07:33:43.387Z,34.70
2019-02-21T07:36:11.758Z,34.07
2019-02-21T07:38:40.224Z,33.43
2019-02-21T07:41:08.767Z,34.30
2019-02-21T07:43:37.413Z,33.27
2019-02-21T07:46:06.929Z,34.03
2019-02-21T07:48:36.474Z,32.73
2019-02-21T07:51:05.254Z,34.30
2019-02-21T07:53:33.737Z,42.03
2019-02-21T07:56:02.233Z,41.83
2019-02-21T07:58:30.641Z,39.67
2019-02-21T08:00:59.133Z,35.77
2019-02-21T08:03:32.183Z,35.40
2019-02-21T08:05:57.763Z,34.30
2019-02-21T08:08:26.245Z,33.20
2019-02-21T08:10:56.130Z,33.83
2019-02-21T08:13:24.827Z,34.83
2019-02-21T08:15:53.884Z,35.00
2019-02-21T08:18:23.095Z,56.03
2019-02-21T08:20:52.305Z,38.63
2019-02-21T08:23:21.289Z,53.50
2019-02-21T08:25:49.931Z,48.80
2019-02-21T08:28:19.629Z,35.43
2019-02-21T08:30:49.731Z,33.50
2019-02-21T08:33:58.425Z,33.00
2019-02-21T08:36:23.096Z,32.87
2019-02-21T08:38:51.548Z,33.27
2019-02-21T08:41:20.004Z,34.40
2019-02-21T08:43:48.547Z,32.60
2019-02-21T08:46:18.314Z,33.67
2019-02-21T08:48:47.903Z,34.90
2019-02-21T08:51:18.447Z,33.37
2019-02-21T08:53:47.644Z,31.77
2019-02-21T08:56:17.695Z,32.80
2019-02-21T08:58:46.581Z,32.83
2019-02-21T09:01:15.577Z,62.57
2019-02-21T09:03:44.424Z,50.80
2019-02-21T09:06:13.381Z,34.27
2019-02-21T09:08:42.405Z,37.70
2019-02-21T09:11:11.422Z,42.43
2019-02-21T09:13:41.662Z,35.90
2019-02-21T09:16:10.421Z,38.03
2019-02-21T09:18:39.501Z,33.20
2019-02-21T09:21:08.020Z,38.03
2019-02-21T09:23:37.015Z,32.83
2019-02-21T09:26:05.444Z,33.30
2019-02-21T09:28:33.896Z,41.13
2019-02-21T09:31:02.818Z,33.83
2019-02-21T09:33:31.329Z,31.43
2019-02-21T09:36:00.351Z,42.17
2019-02-21T09:38:28.795Z,35.53
2019-02-21T09:40:57.228Z,36.47
2019-02-21T09:43:25.692Z,34.73
2019-02-21T09:45:56.292Z,34.40
2019-02-21T09:48:25.588Z,35.70
2019-02-21T09:50:54.588Z,34.93
2019-02-21T09:53:22.964Z,35.77
2019-02-21T09:55:51.989Z,37.17
2019-02-21T09:58:20.491Z,58.73
2019-02-21T10:00:49.035Z,38.50
2019-02-21T10:03:17.466Z,41.77
2019-02-21T10:05:46.024Z,52.53
2019-02-21T10:08:14.563Z,46.20
2019-02-21T10:10:43.040Z,38.67
2019-02-21T10:13:13.270Z,36.93
2019-02-21T10:15:42.028Z,36.13
2019-02-21T10:18:10.470Z,40.20
2019-02-21T10:20:38.979Z,38.80
2019-02-21T10:23:07.452Z,37.87
2019-02-21T10:25:36.030Z,36.90
2019-02-21T10:28:04.539Z,38.50
2019-02-21T10:30:33.113Z,36.47
2019-02-21T10:33:01.624Z,71.83
2019-02-21T10:35:30.160Z,39.50
2019-02-21T10:37:58.689Z,37.87
2019-02-21T10:40:27.108Z,39.07
2019-02-21T10:42:55.549Z,37.90
2019-02-21T10:45:24.075Z,37.50
2019-02-21T10:47:53.104Z,37.73
2019-02-21T10:50:22.123Z,38.53
2019-02-21T10:52:51.186Z,45.17
2019-02-21T10:55:19.662Z,42.57
2019-02-21T10:57:48.695Z,41.17
2019-02-21T11:00:26.582Z,37.93
2019-02-21T11:02:55.608Z,42.13
2019-02-21T11:05:24.074Z,37.90
2019-02-21T11:07:52.812Z,87.93
2019-02-21T11:10:23.817Z,38.70
2019-02-21T11:12:52.852Z,36.23
2019-02-21T11:15:23.009Z,47.70
2019-02-21T11:17:52.036Z,36.90
2019-02-21T11:20:21.208Z,59.47
2019-02-21T11:22:50.264Z,40.07
2019-02-21T11:25:18.710Z,62.63
2019-02-21T11:27:47.668Z,62.83
2019-02-21T11:30:17.686Z,35.27
2019-02-21T11:32:46.335Z,34.10
2019-02-21T11:35:15.506Z,32.77
2019-02-21T11:37:46.806Z,36.47
2019-02-21T11:40:14.649Z,36.07
2019-02-21T11:42:43.308Z,33.83
2019-02-21T11:45:12.654Z,29.20
2019-02-21T11:47:41.260Z,29.47
2019-02-21T11:50:10.436Z,28.83
2019-02-21T11:52:38.981Z,28.73
2019-02-21T11:55:07.841Z,28.20
2019-02-21T11:57:36.349Z,29.03
2019-02-21T12:00:05.864Z,28.00
2019-02-21T12:02:38.754Z,27.90
2019-02-21T12:05:04.612Z,26.83
2019-02-21T12:07:33.162Z,28.27
2019-02-21T12:10:01.655Z,27.27
2019-02-21T12:12:32.285Z,27.23
2019-02-21T12:15:00.853Z,26.93
2019-02-21T12:17:29.332Z,27.73
2019-02-21T12:19:57.828Z,29.23
2019-02-21T12:22:26.269Z,26.03
2019-02-21T12:24:54.703Z,24.27
2019-02-21T12:27:23.315Z,24.40
2019-02-21T12:29:51.820Z,22.63
2019-02-21T12:32:20.331Z,23.83
2019-02-21T12:34:49.240Z,22.60
2019-02-21T12:37:18.173Z,23.73
2019-02-21T12:39:47.197Z,22.43
2019-02-21T12:42:16.120Z,20.47
2019-02-21T12:44:47.712Z,21.13
2019-02-21T12:47:15.744Z,21.20
2019-02-21T12:49:44.684Z,21.10
2019-02-21T12:52:13.568Z,21.97
2019-02-21T12:54:42.941Z,21.13
2019-02-21T12:57:11.839Z,21.00
2019-02-21T12:59:40.737Z,20.13
2019-02-21T13:02:09.741Z,17.80
2019-02-21T13:04:38.793Z,17.27
2019-02-21T13:07:07.968Z,16.77
2019-02-21T13:09:37.156Z,16.40
2019-02-21T13:12:06.116Z,18.27
2019-02-21T13:14:35.196Z,16.13
2019-02-21T13:17:04.249Z,16.80
2019-02-21T13:19:33.328Z,16.07
2019-02-21T13:22:02.202Z,15.77
2019-02-21T13:24:31.288Z,17.47
2019-02-21T13:27:00.312Z,16.63
2019-02-21T13:29:29.395Z,16.33
2019-02-21T13:31:58.318Z,16.43
2019-02-21T13:34:27.313Z,16.17
2019-02-21T13:36:56.182Z,17.10
2019-02-21T13:39:25.103Z,15.53
2019-02-21T13:41:54.261Z,16.17
2019-02-21T13:44:23.183Z,16.27
2019-02-21T13:46:53.626Z,16.47
2019-02-21T13:49:22.689Z,14.90
2019-02-21T13:51:51.611Z,15.77
2019-02-21T13:54:20.541Z,15.47
2019-02-21T13:56:49.453Z,15.93
2019-02-21T13:59:18.463Z,16.60
2019-02-21T14:01:47.655Z,16.13
2019-02-21T14:04:16.701Z,17.90
2019-02-21T14:06:45.751Z,17.27
2019-02-21T14:09:14.907Z,18.83
2019-02-21T14:11:43.892Z,17.53
2019-02-21T14:14:12.881Z,18.77
2019-02-21T14:16:46.599Z,17.50
2019-02-21T14:19:12.544Z,18.67
2019-02-21T14:21:43.661Z,17.93
2019-02-21T14:24:12.308Z,18.87
2019-02-21T14:26:41.219Z,19.03
2019-02-21T14:29:10.257Z,18.67
2019-02-21T14:31:39.301Z,19.53
2019-02-21T14:34:08.412Z,18.87
2019-02-21T14:36:37.381Z,19.33
2019-02-21T14:39:06.744Z,18.03
2019-02-21T14:41:35.677Z,18.97
2019-02-21T14:44:06.643Z,19.30
2019-02-21T14:46:36.412Z,18.97
2019-02-21T14:49:05.525Z,18.13
2019-02-21T14:51:34.504Z,19.53
2019-02-21T14:54:03.517Z,18.03
2019-02-21T14:56:32.523Z,16.53
2019-02-21T14:59:01.561Z,15.37
2019-02-21T15:01:30.411Z,16.23
2019-02-21T15:03:59.474Z,16.73
2019-02-21T15:06:28.559Z,15.33
2019-02-21T15:08:57.498Z,17.03
2019-02-21T15:11:26.539Z,15.50
2019-02-21T15:13:55.558Z,13.40
2019-02-21T15:16:24.499Z,12.83
2019-02-21T15:18:58.507Z,12.80
2019-02-21T15:21:27.536Z,10.70
2019-02-21T15:23:56.600Z,11.47
2019-02-21T15:26:25.624Z,12.30
2019-02-21T15:28:54.942Z,12.07
2019-02-21T15:31:24.010Z,12.33
2019-02-21T15:33:54.248Z,11.47
2019-02-21T15:36:25.296Z,12.23
2019-02-21T15:38:54.391Z,11.53
2019-02-21T15:41:25.715Z,12.27
2019-02-21T15:43:54.702Z,13.60
2019-02-21T15:46:23.911Z,12.97
2019-02-21T15:48:55.005Z,13.83
2019-02-21T15:51:25.691Z,13.73
2019-02-21T15:53:54.198Z,15.10
2019-02-21T15:56:23.256Z,13.13
2019-02-21T15:58:53.419Z,15.13
2019-02-21T16:01:22.371Z,15.00
2019-02-21T16:03:52.440Z,15.33
2019-02-21T16:06:21.330Z,16.30
2019-02-21T16:08:50.244Z,17.60
2019-02-21T16:11:25.336Z,17.53
2019-02-21T16:14:02.696Z,16.93
2019-02-21T16:16:24.907Z,17.90
2019-02-21T16:18:58.583Z,15.97
2019-02-21T16:21:26.580Z,18.00
2019-02-21T16:23:56.061Z,19.40
2019-02-21T16:26:25.250Z,18.47
2019-02-21T16:28:54.864Z,18.87
2019-02-21T16:31:23.947Z,18.93
2019-02-21T16:33:53.063Z,19.33
2019-02-21T16:36:24.091Z,19.20
2019-02-21T16:38:53.376Z,18.53
2019-02-21T16:41:22.567Z,18.93
2019-02-21T16:43:51.831Z,20.63
2019-02-21T16:46:21.812Z,21.53
2019-02-21T16:48:50.906Z,20.00
2019-02-21T16:51:22.168Z,20.90
2019-02-21T16:53:52.496Z,21.33
2019-02-21T16:56:21.133Z,20.47
2019-02-21T16:58:49.714Z,22.73
2019-02-21T17:01:25.520Z,20.73
2019-02-21T17:03:54.151Z,20.40
2019-02-21T17:06:23.051Z,22.97
2019-02-21T17:08:51.680Z,22.67
2019-02-21T17:11:20.210Z,23.13
2019-02-21T17:13:48.769Z,23.27
2019-02-21T17:16:17.380Z,22.00
2019-02-21T17:18:46.108Z,22.07
2019-02-21T17:21:14.700Z,26.75
2019-02-21T17:23:43.163Z,22.63
2019-02-21T17:26:14.863Z,22.57
2019-02-21T17:28:43.477Z,23.00
2019-02-21T17:31:12.015Z,22.93
2019-02-21T17:33:40.680Z,22.80
2019-02-21T17:36:09.206Z,23.37
2019-02-21T17:38:37.647Z,25.13
2019-02-21T17:41:06.379Z,24.70
2019-02-21T17:43:41.000Z,24.20
2019-02-21T17:46:09.515Z,23.70
2019-02-21T17:48:40.036Z,25.70
2019-02-21T17:51:09.605Z,25.83
2019-02-21T17:53:39.206Z,24.87
2019-02-21T17:56:07.852Z,25.10
2019-02-21T17:58:36.411Z,24.93
2019-02-21T18:01:05.504Z,24.70
2019-02-21T18:03:34.100Z,24.43
2019-02-21T18:06:02.586Z,26.00
2019-02-21T18:08:31.110Z,26.37
2019-02-21T18:10:59.699Z,26.10
2019-02-21T18:13:28.235Z,26.33
2019-02-21T18:15:56.864Z,25.63
2019-02-21T18:18:25.480Z,26.80
2019-02-21T18:20:53.999Z,26.10
2019-02-21T18:23:22.556Z,26.07
2019-02-21T18:25:56.632Z,26.33
2019-02-21T18:28:25.300Z,25.57
2019-02-21T18:30:57.253Z,27.37
2019-02-21T18:33:25.956Z,26.10
2019-02-21T18:35:56.028Z,25.37
2019-02-21T18:38:24.569Z,24.93
2019-02-21T18:40:55.005Z,27.20
2019-02-21T18:43:23.713Z,25.97
2019-02-21T18:45:52.396Z,27.53
2019-02-21T18:48:21.064Z,27.37
2019-02-21T18:50:49.663Z,26.60
2019-02-21T18:53:18.622Z,27.77
2019-02-21T18:55:47.282Z,28.73
2019-02-21T18:58:15.908Z,29.83
2019-02-21T19:00:47.533Z,29.27
2019-02-21T19:03:16.376Z,29.57
2019-02-21T19:05:45.026Z,30.77
2019-02-21T19:08:15.851Z,30.17
2019-02-21T19:10:44.473Z,31.43
2019-02-21T19:13:13.019Z,35.58
2019-02-21T19:15:44.665Z,31.60
2019-02-21T19:18:13.129Z,30.40
2019-02-21T19:20:41.716Z,29.87
2019-02-21T19:23:10.235Z,30.53
2019-02-21T19:25:38.779Z,30.63
2019-02-21T19:28:07.269Z,30.50
2019-02-21T19:30:37.350Z,31.13
2019-02-21T19:33:05.883Z,30.43
2019-02-21T19:35:34.422Z,29.77
2019-02-21T19:38:10.576Z,31.60
2019-02-21T19:40:33.324Z,32.23
2019-02-21T19:43:01.840Z,32.73
2019-02-21T19:45:30.495Z,37.43
2019-02-21T19:47:59.169Z,35.40
2019-02-21T19:50:29.148Z,35.57
2019-02-21T19:52:57.818Z,37.40
2019-02-21T19:55:26.389Z,37.50
2019-02-21T19:57:54.887Z,37.17
2019-02-21T20:00:24.375Z,40.00
2019-02-21T20:02:55.197Z,41.73
2019-02-21T20:05:23.832Z,41.77
2019-02-21T20:07:52.466Z,43.37
2019-02-21T20:10:21.279Z,42.40
2019-02-21T20:12:49.876Z,45.50
2019-02-21T20:15:18.518Z,43.93
2019-02-21T20:17:47.159Z,45.40
2019-02-21T20:20:16.057Z,46.40
2019-02-21T20:22:44.596Z,47.93
2019-02-21T20:25:13.234Z,48.47
2019-02-21T20:27:42.003Z,49.13
2019-02-21T20:30:11.568Z,50.50
2019-02-21T20:32:43.418Z,49.63
2019-02-21T20:35:13.072Z,48.77
2019-02-21T20:37:45.342Z,47.30
2019-02-21T20:40:14.093Z,47.17
2019-02-21T20:42:42.743Z,44.53
2019-02-21T20:45:14.189Z,45.90
2019-02-21T20:47:42.775Z,44.83
2019-02-21T20:50:11.545Z,43.60
2019-02-21T20:52:42.267Z,45.63
2019-02-21T20:55:12.451Z,47.97
2019-02-21T20:57:41.557Z,45.63
2019-02-21T21:00:11.092Z,45.03
2019-02-21T21:02:40.007Z,47.37
2019-02-21T21:05:08.805Z,48.70
2019-02-21T21:07:37.750Z,44.83
2019-02-21T21:10:07.715Z,45.50
2019-02-21T21:12:36.436Z,46.17
2019-02-21T21:15:30.495Z,45.43
2019-02-21T21:18:34.595Z,45.50
2019-02-21T21:21:55.397Z,44.03
2019-02-21T21:25:08.394Z,43.47
2019-02-21T21:34:09.737Z,58.65
2019-02-21T21:37:34.466Z,46.80
2019-02-21T21:40:03.973Z,42.97
2019-02-21T21:43:22.170Z,43.70
2019-02-21T21:45:51.007Z,60.63
2019-02-21T21:48:19.519Z,48.87
2019-02-21T21:50:48.110Z,46.40
2019-02-21T21:53:16.822Z,45.23
2019-02-21T21:55:45.420Z,44.60
2019-02-21T21:58:13.997Z,46.57
2019-02-21T22:00:42.640Z,45.83
2019-02-21T22:03:11.298Z,45.40
2019-02-21T22:05:39.878Z,45.37
2019-02-21T22:08:08.467Z,46.23
2019-02-21T22:10:37.002Z,47.23
2019-02-21T22:13:05.636Z,46.10
2019-02-21T22:15:34.326Z,46.00
2019-02-21T22:18:04.011Z,46.10
2019-02-21T22:20:32.444Z,42.93
2019-02-21T22:23:02.087Z,45.77
2019-02-21T22:25:31.048Z,45.60
2019-02-21T22:27:59.544Z,47.37
2019-02-21T22:32:15.450Z,45.47
2019-02-21T22:33:54.087Z,44.67
2019-02-21T22:36:23.022Z,46.87
2019-02-21T22:38:51.607Z,48.23
2019-02-21T22:41:20.227Z,43.57
2019-02-21T22:43:48.869Z,45.80
2019-02-21T22:46:19.530Z,45.30
2019-02-21T22:48:48.130Z,45.30
2019-02-21T22:51:19.248Z,46.37
2019-02-21T22:53:47.772Z,47.37
2019-02-21T22:56:16.439Z,46.27
2019-02-21T22:58:45.480Z,47.47
2019-02-21T23:01:22.122Z,49.50
2019-02-21T23:03:55.211Z,44.70
2019-02-21T23:06:57.958Z,48.33
2019-02-21T23:09:29.188Z,48.17
2019-02-21T23:11:57.720Z,48.87
2019-02-21T23:14:26.399Z,49.97
2019-02-21T23:16:54.911Z,49.67
2019-02-21T23:19:24.267Z,50.83
2019-02-21T23:21:53.041Z,50.10
2019-02-21T23:24:21.559Z,49.60
2019-02-21T23:26:50.168Z,49.27
2019-02-21T23:29:19.008Z,48.67
2019-02-21T23:31:47.507Z,48.10
2019-02-21T23:34:22.821Z,49.03
2019-02-21T23:36:51.475Z,50.10
2019-02-21T23:39:20.059Z,49.80
2019-02-21T23:41:48.625Z,50.07
2019-02-21T23:44:17.268Z,49.43
2019-02-21T23:46:45.792Z,50.90
2019-02-21T23:49:14.317Z,51.93
2019-02-21T23:51:42.822Z,50.93
2019-02-21T23:54:11.327Z,50.90
2019-02-21T23:56:39.864Z,48.57
2019-02-21T23:59:08.359Z,50.80
